Time;durP1;ratioP1;P1;durP2;ratioP2;P2;SDS_P1;SDS_P2;PMS_P1;PMS_P2;Temp;Humidity;BMP_temperature;BMP_pressure;BME280_temperature;BME280_humidity;BME280_pressure;Samples;Min_cycle;Max_cycle;Signal;HPM_P1;HPM_P2
2021/10/14 00:00:36;;;;;;;17.25;9.10;;;;;;;10.09;100.00;97084.31;5024695;28;20050;-63
2021/10/14 00:03:05;;;;;;;14.95;8.25;;;;;;;10.72;100.00;97184.41;5024784;28;20274;-63
2021/10/14 00:05:32;;;;;;;15.75;8.45;;;;;;;10.42;100.00;97148.22;5024233;28;20535;-63
2021/10/14 00:07:59;;;;;;;16.00;8.38;;;;;;;10.20;100.00;97113.78;5024712;28;20053;-63
2021/10/14 00:10:27;;;;;;;15.80;9.02;;;;;;;10.52;100.00;97176.13;5024567;28;20112;-63
2021/10/14 00:12:55;;;;;;;15.82;8.30;;;;;;;10.51;100.00;97179.28;5024198;28;20057;-63
2021/10/14 00:15:22;;;;;;;13.95;8.30;;;;;;;10.65;100.00;97190.63;5022329;28;20053;-62
2021/10/14 00:17:49;;;;;;;15.40;8.80;;;;;;;10.70;100.00;97193.09;5024007;28;20056;-63
2021/10/14 00:20:16;;;;;;;14.85;8.52;;;;;;;10.38;100.00;97153.72;5024131;28;20068;-62
2021/10/14 00:22:43;;;;;;;21.75;9.13;;;;;;;10.69;100.00;97191.47;5024328;28;20072;-62
2021/10/14 00:25:10;;;;;;;17.10;9.23;;;;;;;10.55;100.00;97186.47;5022479;28;20505;-62
2021/10/14 00:27:37;;;;;;;18.65;9.88;;;;;;;10.73;100.00;97193.16;5024220;28;20057;-62
2021/10/14 00:30:04;;;;;;;17.63;9.75;;;;;;;10.60;100.00;97172.34;5023099;28;20064;-62
2021/10/14 00:32:31;;;;;;;14.63;8.52;;;;;;;10.78;100.00;97199.56;5022566;28;20060;-62
2021/10/14 00:34:57;;;;;;;14.65;9.15;;;;;;;10.79;100.00;97198.38;5022399;28;20063;-62
2021/10/14 00:37:24;;;;;;;18.40;7.72;;;;;;;10.79;100.00;97198.38;5022530;28;20061;-62
2021/10/14 00:39:51;;;;;;;17.52;9.60;;;;;;;10.25;100.00;97121.81;5023812;28;20406;-62
2021/10/14 00:42:18;;;;;;;20.67;9.75;;;;;;;10.79;100.00;97185.34;5023963;28;20053;-62
2021/10/14 00:44:46;;;;;;;18.85;8.82;;;;;;;10.90;100.00;97185.53;5024235;28;20752;-62
2021/10/14 00:47:24;;;;;;;17.48;9.75;;;;;;;10.85;100.00;97169.19;5024219;28;20049;-62
2021/10/14 00:49:53;;;;;;;15.48;8.13;;;;;;;10.89;100.00;97167.31;5022338;28;20053;-63
2021/10/14 00:52:20;;;;;;;14.38;8.43;;;;;;;10.86;100.00;97179.13;5023851;28;20057;-63
2021/10/14 00:54:50;;;;;;;13.73;8.18;;;;;;;10.30;100.00;97102.13;5022279;28;20128;-63
2021/10/14 00:57:18;;;;;;;18.73;9.95;;;;;;;10.53;100.00;97177.72;5024386;28;20049;-61
2021/10/14 00:59:45;;;;;;;15.93;9.40;;;;;;;10.62;100.00;97192.13;5023439;28;20053;-61
2021/10/14 01:02:11;;;;;;;16.55;9.55;;;;;;;9.91;100.00;97083.91;5023968;28;20076;-61
2021/10/14 01:04:39;;;;;;;15.70;8.82;;;;;;;10.70;100.00;97190.31;5023877;28;20057;-64
2021/10/14 01:07:07;;;;;;;16.90;9.40;;;;;;;10.63;100.00;97188.22;5023883;28;20059;-63
2021/10/14 01:09:33;;;;;;;15.07;9.32;;;;;;;10.30;100.00;97124.28;5022007;28;20057;-62
2021/10/14 01:12:02;;;;;;;15.63;8.07;;;;;;;10.75;100.00;97172.59;5022025;28;20061;-62
2021/10/14 01:14:29;;;;;;;16.05;9.15;;;;;;;10.54;100.00;97151.63;5023422;28;20049;-63
2021/10/14 01:16:56;;;;;;;15.82;10.43;;;;;;;10.68;100.00;97185.13;5021676;28;20436;-63
2021/10/14 01:19:23;;;;;;;15.95;8.63;;;;;;;10.67;100.00;97189.06;5023621;28;20060;-63
2021/10/14 01:21:50;;;;;;;16.38;8.77;;;;;;;10.70;100.00;97198.63;5021952;28;20049;-62
2021/10/14 01:24:18;;;;;;;14.07;8.48;;;;;;;10.70;100.00;97188.34;5023793;28;20045;-63
2021/10/14 01:26:45;;;;;;;14.60;8.98;;;;;;;10.59;100.00;97176.25;5026345;28;20451;-63
2021/10/14 01:29:12;;;;;;;14.57;8.15;;;;;;;10.81;100.00;97196.06;5027259;28;20053;-63
2021/10/14 01:31:39;;;;;;;16.27;8.68;;;;;;;9.04;100.00;96883.91;5027134;28;20049;-63
2021/10/14 01:34:07;;;;;;;14.13;8.57;;;;;;;10.87;100.00;97191.81;5027153;28;20107;-63
2021/10/14 01:36:35;;;;;;;14.63;8.32;;;;;;;10.57;100.00;97161.19;5027383;28;20076;-63
2021/10/14 01:39:03;;;;;;;16.45;9.30;;;;;;;10.30;100.00;97143.66;5027588;28;20049;-63
2021/10/14 01:41:30;;;;;;;16.70;9.00;;;;;;;10.70;100.00;97204.97;5025783;28;20053;-63
2021/10/14 01:43:57;;;;;;;14.75;8.80;;;;;;;10.72;100.00;97212.91;5025616;28;20052;-62
2021/10/14 01:46:24;;;;;;;18.23;9.82;;;;;;;10.65;100.00;97208.03;5027224;28;20404;-62
2021/10/14 01:48:51;;;;;;;14.48;9.00;;;;;;;10.59;100.00;97192.09;5026090;28;20128;-63
2021/10/14 01:51:18;;;;;;;12.63;7.97;;;;;;;10.24;100.00;97125.72;5027091;28;20053;-63
2021/10/14 01:53:44;;;;;;;16.85;9.38;;;;;;;10.61;100.00;97198.84;5027752;28;20061;-63
2021/10/14 01:56:11;;;;;;;14.07;8.15;;;;;;;10.73;100.00;97208.16;5027333;28;20065;-62
2021/10/14 01:58:38;;;;;;;20.50;10.10;;;;;;;10.75;100.00;97216.94;5025406;28;20055;-62
2021/10/14 02:01:04;;;;;;;14.57;9.23;;;;;;;10.58;100.00;97213.44;5026854;28;20057;-62
2021/10/14 02:03:31;;;;;;;14.55;8.73;;;;;;;10.49;100.00;97204.56;5026479;28;20084;-62
2021/10/14 02:05:58;;;;;;;16.80;9.50;;;;;;;10.52;100.00;97209.38;5026722;28;20049;-62
2021/10/14 02:08:25;;;;;;;17.38;10.55;;;;;;;10.22;100.00;97188.16;5026762;28;20083;-62
2021/10/14 02:10:51;;;;;;;20.65;11.05;;;;;;;10.39;100.00;97205.16;5026673;28;20071;-62
2021/10/14 02:13:18;;;;;;;19.40;11.35;;;;;;;10.43;100.00;97205.22;5025456;28;20061;-62
2021/10/14 02:15:45;;;;;;;17.10;10.10;;;;;;;10.40;100.00;97206.75;5026652;28;20144;-63
2021/10/14 02:18:12;;;;;;;18.30;10.95;;;;;;;10.35;100.00;97198.72;5026367;28;20454;-63
2021/10/14 02:20:39;;;;;;;21.15;11.27;;;;;;;10.30;100.00;97199.03;5026478;28;20067;-62
2021/10/14 02:23:05;;;;;;;21.58;11.40;;;;;;;10.37;100.00;97207.47;5026803;28;20056;-62
2021/10/14 02:25:32;;;;;;;17.73;9.73;;;;;;;10.37;100.00;97201.94;5025189;28;20060;-62
2021/10/14 02:27:59;;;;;;;19.08;10.63;;;;;;;10.32;100.00;97210.53;5026166;28;20049;-62
2021/10/14 02:30:25;;;;;;;18.92;10.73;;;;;;;10.27;100.00;97201.72;5027009;28;20064;-62
2021/10/14 02:32:52;;;;;;;21.02;11.20;;;;;;;10.32;100.00;97199.47;5026586;28;20055;-62
2021/10/14 02:35:19;;;;;;;17.55;10.90;;;;;;;10.34;100.00;97199.91;5026397;28;20500;-62
2021/10/14 02:37:45;;;;;;;19.63;10.95;;;;;;;10.43;100.00;97197.69;5026054;28;20049;-62
2021/10/14 02:40:12;;;;;;;22.10;11.43;;;;;;;10.27;100.00;97199.78;5024993;28;20128;-62
2021/10/14 02:42:39;;;;;;;19.75;10.73;;;;;;;9.96;100.00;97163.88;5026129;28;20067;-64
2021/10/14 02:45:06;;;;;;;24.45;12.02;;;;;;;10.24;100.00;97203.25;5026208;28;20213;-62
2021/10/14 02:47:33;;;;;;;22.15;11.32;;;;;;;10.29;100.00;97213.25;5026304;28;20051;-62
2021/10/14 02:50:00;;;;;;;18.77;10.40;;;;;;;10.27;100.00;97213.63;5026330;28;20064;-62
2021/10/14 02:52:26;;;;;;;19.35;10.43;;;;;;;10.18;100.00;97193.63;5024681;28;20064;-62
2021/10/14 02:54:53;;;;;;;19.92;9.93;;;;;;;10.25;100.00;97224.25;5024890;28;20064;-62
2021/10/14 02:57:20;;;;;;;22.88;10.90;;;;;;;10.22;100.00;97238.81;5026161;28;20421;-62
2021/10/14 02:59:46;;;;;;;20.80;12.10;;;;;;;10.22;100.00;97222.22;5025454;28;20050;-62
2021/10/14 03:02:13;;;;;;;19.45;11.25;;;;;;;10.11;100.00;97228.66;5025672;28;20495;-62
2021/10/14 03:04:40;;;;;;;16.23;9.93;;;;;;;9.85;100.00;97211.84;5024143;28;20057;-62
2021/10/14 03:07:07;;;;;;;22.27;10.43;;;;;;;9.89;100.00;97230.16;5024505;28;20064;-63
2021/10/14 03:09:34;;;;;;;22.10;12.73;;;;;;;9.99;100.00;97235.09;5023372;28;20080;-63
2021/10/14 03:12:00;;;;;;;24.08;11.75;;;;;;;10.06;100.00;97240.81;5024701;28;20128;-64
2021/10/14 03:14:27;;;;;;;24.05;15.02;;;;;;;10.10;100.00;97250.00;5024351;28;20061;-63
2021/10/14 03:16:54;;;;;;;21.25;11.90;;;;;;;10.04;100.00;97236.78;5024229;28;20068;-64
2021/10/14 03:19:20;;;;;;;19.13;10.27;;;;;;;10.01;100.00;97243.84;5024270;28;20488;-63
2021/10/14 03:21:47;;;;;;;24.30;11.88;;;;;;;9.67;100.00;97200.41;5024355;28;20068;-63
2021/10/14 03:24:14;;;;;;;23.42;12.55;;;;;;;10.09;100.00;97242.06;5024456;28;20403;-63
2021/10/14 03:26:40;;;;;;;19.52;11.45;;;;;;;10.10;100.00;97230.63;5024467;28;20045;-63
2021/10/14 03:29:07;;;;;;;25.15;13.35;;;;;;;10.21;100.00;97245.50;5022790;28;20057;-62
2021/10/14 03:31:34;;;;;;;22.70;13.57;;;;;;;9.53;100.00;97141.97;5024295;28;20056;-62
2021/10/14 03:34:01;;;;;;;24.95;13.15;;;;;;;10.21;100.00;97241.94;5024530;28;20128;-62
2021/10/14 03:36:27;;;;;;;21.67;10.85;;;;;;;9.98;100.00;97203.06;5024224;28;20061;-63
2021/10/14 03:38:56;;;;;;;21.08;11.55;;;;;;;9.83;100.00;97186.53;5024239;28;20081;-62
2021/10/14 03:41:23;;;;;;;20.13;11.13;;;;;;;10.20;100.00;97246.66;5022876;28;20522;-63
2021/10/14 03:43:50;;;;;;;18.40;10.35;;;;;;;10.06;100.00;97253.81;5024322;28;20053;-62
2021/10/14 03:46:17;;;;;;;22.38;12.15;;;;;;;9.74;100.00;97200.53;5022450;28;20548;-62
2021/10/14 03:48:43;;;;;;;22.88;11.27;;;;;;;9.97;100.00;97245.75;5023264;28;20123;-62
2021/10/14 03:51:10;;;;;;;27.10;12.02;;;;;;;9.86;100.00;97225.34;5022346;28;20061;-62
2021/10/14 03:53:37;;;;;;;21.75;11.15;;;;;;;10.11;100.00;97259.94;5023624;28;20139;-62
2021/10/14 03:56:04;;;;;;;22.15;12.40;;;;;;;10.07;100.00;97264.56;5023695;28;20063;-61
2021/10/14 03:58:30;;;;;;;23.75;12.30;;;;;;;9.75;100.00;97201.34;5022671;28;20459;-62
2021/10/14 04:00:57;;;;;;;23.17;13.10;;;;;;;10.04;100.00;97254.19;5022557;28;20056;-62
2021/10/14 04:03:24;;;;;;;24.52;12.38;;;;;;;9.82;100.00;97218.91;5022665;28;20065;-62
2021/10/14 04:05:51;;;;;;;28.98;14.23;;;;;;;10.15;100.00;97255.25;4980865;28;1194567;-62
2021/10/14 04:08:17;;;;;;;32.03;16.27;;;;;;;9.86;100.00;97213.47;5024473;28;20053;-62
2021/10/14 04:10:44;;;;;;;57.00;26.88;;;;;;;10.13;100.00;97256.78;5022980;28;20152;-62
2021/10/14 04:13:11;;;;;;;42.20;19.77;;;;;;;10.04;100.00;97248.66;5024646;28;20056;-61
2021/10/14 04:15:38;;;;;;;40.80;21.77;;;;;;;10.02;100.00;97256.50;5024811;28;20173;-61
2021/10/14 04:18:05;;;;;;;43.70;22.40;;;;;;;9.36;100.00;97156.19;5024305;28;20065;-62
2021/10/14 04:20:32;;;;;;;37.03;17.73;;;;;;;9.76;100.00;97231.41;5024046;28;20068;-61
2021/10/14 04:23:02;;;;;;;29.48;16.42;;;;;;;9.97;100.00;97265.13;5024051;28;20053;-62
2021/10/14 04:25:29;;;;;;;22.20;12.68;;;;;;;10.00;100.00;97264.41;5022575;28;20053;-63
2021/10/14 04:27:56;;;;;;;23.63;13.30;;;;;;;9.92;100.00;97272.88;5024152;28;20053;-61
2021/10/14 04:30:23;;;;;;;25.70;12.73;;;;;;;9.89;100.00;97279.13;5024368;28;20052;-62
2021/10/14 04:32:49;;;;;;;31.05;15.23;;;;;;;9.88;100.00;97272.78;5023164;28;20051;-62
2021/10/14 04:35:16;;;;;;;26.80;13.02;;;;;;;9.56;100.00;97231.72;5024263;28;20463;-61
2021/10/14 04:37:43;;;;;;;26.27;13.77;;;;;;;9.56;100.00;97231.72;5022349;28;20053;-63
2021/10/14 04:40:11;;;;;;;25.77;13.23;;;;;;;9.92;100.00;97273.69;5023805;28;20548;-60
2021/10/14 04:42:41;;;;;;;32.45;16.83;;;;;;;9.65;100.00;97241.44;5023811;28;20531;-61
2021/10/14 04:45:08;;;;;;;22.95;13.98;;;;;;;9.86;100.00;97277.91;5023609;28;20064;-61
2021/10/14 04:47:36;;;;;;;23.85;13.57;;;;;;;9.58;100.00;97246.00;5024049;28;20055;-61
2021/10/14 04:50:04;;;;;;;37.00;15.68;;;;;;;9.34;100.00;97219.38;5023183;28;20435;-61
2021/10/14 04:52:31;;;;;;;21.77;10.95;;;;;;;9.62;100.00;97274.53;5023993;28;20134;-62
2021/10/14 04:54:58;;;;;;;23.10;12.20;;;;;;;9.72;100.00;97277.53;5023694;28;20049;-63
2021/10/14 04:57:25;;;;;;;23.67;13.18;;;;;;;9.65;100.00;97274.63;5023184;28;20076;-61
2021/10/14 04:59:51;;;;;;;17.90;10.63;;;;;;;9.56;100.00;97276.78;5022025;28;20060;-61
2021/10/14 05:02:18;;;;;;;15.73;8.40;;;;;;;9.35;100.00;97281.78;5022080;28;20166;-62
2021/10/14 05:04:45;;;;;;;13.95;7.78;;;;;;;9.33;100.00;97283.28;5023064;28;20053;-62
2021/10/14 05:07:12;;;;;;;14.32;8.40;;;;;;;9.07;100.00;97276.31;5023756;28;20172;-62
2021/10/14 05:09:38;;;;;;;15.63;9.40;;;;;;;9.25;100.00;97282.28;5022086;28;20056;-61
2021/10/14 05:12:05;;;;;;;19.30;10.48;;;;;;;9.27;100.00;97279.16;5023144;28;20054;-62
2021/10/14 05:14:32;;;;;;;19.90;12.90;;;;;;;9.18;100.00;97254.50;5023108;28;20045;-62
2021/10/14 05:16:59;;;;;;;17.00;10.40;;;;;;;9.04;100.00;97259.66;5022257;28;20412;-61
2021/10/14 05:19:25;;;;;;;26.05;12.57;;;;;;;9.19;100.00;97278.19;5023318;28;20073;-62
2021/10/14 05:21:53;;;;;;;21.88;10.98;;;;;;;9.24;100.00;97280.69;5023248;28;20053;-62
2021/10/14 05:24:20;;;;;;;22.40;11.55;;;;;;;9.15;100.00;97278.09;5023589;28;20610;-61
2021/10/14 05:26:47;;;;;;;14.93;7.95;;;;;;;9.04;100.00;97282.53;5023272;28;20057;-62
2021/10/14 05:29:13;;;;;;;11.73;7.70;;;;;;;8.88;100.00;97283.69;5023287;28;20061;-62
2021/10/14 05:31:40;;;;;;;15.73;9.02;;;;;;;9.04;100.00;97304.66;5021795;28;20612;-62
2021/10/14 05:34:07;;;;;;;14.30;7.50;;;;;;;9.15;100.00;97288.38;5022063;28;20053;-62
2021/10/14 05:36:34;;;;;;;11.23;5.97;;;;;;;8.83;100.00;97292.22;5023443;28;20084;-62
2021/10/14 05:39:00;;;;;;;8.95;5.82;;;;;;;8.83;100.00;97290.28;5023141;28;20049;-62
2021/10/14 05:41:27;;;;;;;7.22;4.90;;;;;;;8.61;100.00;97301.06;5020535;28;20057;-63
2021/10/14 05:43:54;;;;;;;9.60;5.40;;;;;;;8.67;100.00;97305.19;5021520;28;20048;-62
2021/10/14 05:46:21;;;;;;;19.20;8.00;;;;;;;8.57;100.00;97275.28;5034963;28;20431;-61
2021/10/14 05:48:47;;;;;;;18.75;10.88;;;;;;;9.01;100.00;97310.06;5021454;28;20049;-63
2021/10/14 05:51:14;;;;;;;20.70;11.77;;;;;;;8.84;100.00;97249.63;5020425;28;20062;-59
2021/10/14 05:53:41;;;;;;;17.75;9.90;;;;;;;9.25;100.00;97309.94;5022222;28;20045;-63
2021/10/14 05:56:08;;;;;;;13.25;8.50;;;;;;;9.32;100.00;97310.13;5019473;28;20131;-61
2021/10/14 05:58:34;;;;;;;11.48;7.20;;;;;;;9.25;100.00;97323.75;5022644;28;20164;-61
2021/10/14 06:01:01;;;;;;;13.77;7.97;;;;;;;8.53;100.00;97206.22;5022901;28;20041;-63
2021/10/14 06:03:28;;;;;;;13.40;7.90;;;;;;;7.01;100.00;97004.44;5022367;28;20045;-61
2021/10/14 06:05:55;;;;;;;13.27;7.07;;;;;;;9.28;100.00;97334.09;5022298;28;20088;-59
2021/10/14 06:08:22;;;;;;;10.45;6.72;;;;;;;9.23;100.00;97318.59;5023016;28;20359;-60
2021/10/14 06:10:48;;;;;;;10.68;6.90;;;;;;;9.38;100.00;97330.81;5019984;28;20053;-65
2021/10/14 06:13:15;;;;;;;14.57;7.78;;;;;;;9.10;100.00;97288.63;5023840;28;20046;-58
2021/10/14 06:15:43;;;;;;;10.80;6.95;;;;;;;9.16;100.00;97335.00;5026505;28;20053;-61
2021/10/14 06:18:09;;;;;;;6.57;3.88;;;;;;;8.79;100.00;97335.50;5025206;28;20384;-59
2021/10/14 06:20:36;;;;;;;5.50;3.60;;;;;;;8.69;100.00;97336.81;5026024;28;20061;-59
2021/10/14 06:23:04;;;;;;;4.97;3.05;;;;;;;8.45;100.00;97347.13;5025351;28;20056;-60
2021/10/14 06:25:30;;;;;;;7.45;4.35;;;;;;;8.19;100.00;97283.25;5019935;28;20159;-60
2021/10/14 06:27:57;;;;;;;6.00;3.97;;;;;;;8.24;100.00;97281.06;5034401;28;20495;-62
2021/10/14 06:30:24;;;;;;;9.57;5.53;;;;;;;8.66;100.00;97353.28;5025379;28;20057;-59
2021/10/14 06:32:51;;;;;;;11.73;7.13;;;;;;;8.72;100.00;97299.41;5024728;28;20055;-59
2021/10/14 06:35:17;;;;;;;11.60;6.13;;;;;;;8.83;100.00;97311.56;5025234;28;20053;-61
2021/10/14 06:37:44;;;;;;;18.50;11.20;;;;;;;6.87;100.00;96989.44;5023119;28;20053;-61
2021/10/14 06:40:11;;;;;;;24.63;17.05;;;;;;;8.80;100.00;97292.94;5024767;28;20516;-64
2021/10/14 06:42:38;;;;;;;13.75;7.68;;;;;;;9.15;100.00;97351.94;5024915;28;20049;-65
2021/10/14 06:45:09;;;;;;;7.95;5.28;;;;;;;7.93;100.00;97153.19;5024762;28;20444;-63
2021/10/14 06:47:36;;;;;;;10.50;5.70;;;;;;;9.17;100.00;97364.22;5024737;28;20497;-60
2021/10/14 06:50:06;;;;;;;11.35;5.82;;;;;;;8.78;100.00;97328.38;5023907;28;20064;-62
2021/10/14 06:52:33;;;;;;;6.85;4.65;;;;;;;8.61;100.00;97317.63;5022930;28;20075;-61
2021/10/14 06:55:00;;;;;;;5.25;3.63;;;;;;;8.02;100.00;97240.16;5024524;28;20049;-59
2021/10/14 06:57:26;;;;;;;4.10;2.53;;;;;;;8.73;100.00;97354.28;5018654;28;20471;-61
2021/10/14 06:59:53;;;;;;;3.60;2.10;;;;;;;8.68;100.00;97370.28;5023633;28;20053;-58
2021/10/14 07:02:20;;;;;;;3.78;2.55;;;;;;;8.03;100.00;97279.59;5023298;28;20125;-61
2021/10/14 07:04:47;;;;;;;2.67;2.22;;;;;;;8.45;100.00;97369.22;5023137;28;20410;-62
2021/10/14 07:07:13;;;;;;;2.88;1.88;;;;;;;8.23;100.00;97372.47;5022831;28;20591;-62
2021/10/14 07:09:40;;;;;;;2.45;1.70;;;;;;;8.14;100.00;97380.06;5022536;28;20049;-60
2021/10/14 07:12:10;;;;;;;1.92;1.48;;;;;;;7.86;100.00;97373.59;5023782;28;20068;-61
2021/10/14 07:14:41;;;;;;;1.70;1.33;;;;;;;7.85;100.00;97377.53;5024784;28;20185;-62
2021/10/14 07:17:08;;;;;;;2.35;1.20;;;;;;;7.99;100.00;97355.91;5023373;28;20053;-61
2021/10/14 07:19:36;;;;;;;2.35;2.03;;;;;;;7.69;100.00;97347.88;5025518;28;20057;-60
2021/10/14 07:22:04;;;;;;;3.97;2.22;;;;;;;7.69;100.00;97312.03;5024832;28;20060;-61
2021/10/14 07:24:31;;;;;;;7.55;4.00;;;;;;;8.24;100.00;97352.00;5024004;28;20053;-57
2021/10/14 07:26:58;;;;;;;5.05;3.60;;;;;;;8.37;100.00;97359.09;5024803;28;20053;-56
2021/10/14 07:29:26;;;;;;;9.18;4.95;;;;;;;8.20;100.00;97290.34;5024706;28;20061;-58
2021/10/14 07:31:53;;;;;;;8.48;5.20;;;;;;;8.12;100.00;97266.47;5024143;28;20053;-61
2021/10/14 07:34:20;;;;;;;7.45;4.60;;;;;;;8.94;100.00;97359.63;5022941;28;20057;-61
2021/10/14 07:36:47;;;;;;;10.98;5.10;;;;;;;8.57;100.00;97316.72;5023603;28;20057;-63
2021/10/14 07:39:13;;;;;;;7.97;3.92;;;;;;;9.06;100.00;97356.78;5024546;28;20050;-57
2021/10/14 07:41:40;;;;;;;5.32;2.65;;;;;;;9.09;100.00;97361.59;5024535;28;20151;-58
2021/10/14 07:44:07;;;;;;;8.30;3.67;;;;;;;9.22;100.00;97357.63;5024374;28;20060;-59
2021/10/14 07:46:34;;;;;;;12.05;4.20;;;;;;;9.30;100.00;97361.38;5023736;28;20049;-56
2021/10/14 07:49:04;;;;;;;3.25;2.03;;;;;;;9.02;100.00;97356.72;5024638;28;20119;-61
2021/10/14 07:51:30;;;;;;;1.80;1.35;;;;;;;8.88;100.00;97366.56;5022337;28;20186;-57
2021/10/14 07:53:57;;;;;;;3.05;1.70;;;;;;;8.37;100.00;97317.72;5024336;28;20057;-56
2021/10/14 07:56:24;;;;;;;2.55;1.20;;;;;;;8.14;100.00;97311.06;5023774;28;20056;-57
2021/10/14 07:58:51;;;;;;;3.72;1.40;;;;;;;7.70;100.00;97260.44;5024155;28;20049;-58
2021/10/14 08:01:18;;;;;;;2.22;1.67;;;;;;;8.44;100.00;97367.63;5024501;28;20219;-61
2021/10/14 08:03:45;;;;;;;9.38;4.32;;;;;;;8.53;100.00;97358.03;5024186;28;20049;-63
2021/10/14 08:06:11;;;;;;;6.47;3.97;;;;;;;8.74;100.00;97371.69;5023252;28;20057;-58
2021/10/14 08:08:39;;;;;;;22.75;9.18;;;;;;;8.62;100.00;97335.78;5022511;28;20142;-63
2021/10/14 08:11:06;;;;;;;8.50;5.05;;;;;;;8.83;100.00;97369.56;5023865;28;20049;-57
2021/10/14 08:13:34;;;;;;;5.68;2.53;;;;;;;9.00;100.00;97369.25;5023800;28;20539;-58
2021/10/14 08:16:03;;;;;;;12.93;7.38;;;;;;;8.49;100.00;97298.34;5023932;28;20053;-64
2021/10/14 08:18:31;;;;;;;19.10;8.05;;;;;;;9.02;100.00;97372.47;5023773;28;20064;-62
2021/10/14 08:20:58;;;;;;;14.70;7.30;;;;;;;8.84;100.00;97332.50;5023556;28;20077;-58
2021/10/14 08:23:26;;;;;;;7.82;4.13;;;;;;;9.12;100.00;97377.47;5023400;28;20045;-59
2021/10/14 08:25:54;;;;;;;8.10;4.97;;;;;;;8.90;100.00;97358.69;5023435;28;20049;-58
2021/10/14 08:28:23;;;;;;;8.15;4.57;;;;;;;8.78;100.00;97312.63;5023153;28;20060;-61
2021/10/14 08:30:50;;;;;;;6.38;3.63;;;;;;;9.43;100.00;97372.03;5018667;28;20521;-59
2021/10/14 08:33:17;;;;;;;6.47;4.60;;;;;;;9.55;100.00;97371.94;5032914;28;20132;-61
2021/10/14 08:35:44;;;;;;;7.35;3.88;;;;;;;9.58;100.00;97379.53;5020839;28;20045;-66
2021/10/14 08:38:12;;;;;;;6.55;4.40;;;;;;;8.53;100.00;97257.84;5021942;28;20053;-65
2021/10/14 08:40:40;;;;;;;4.95;2.47;;;;;;;9.66;100.00;97380.53;5022942;28;20140;-67
2021/10/14 08:43:11;;;;;;;9.88;3.60;;;;;;;9.72;100.00;97382.66;5023060;28;20053;-65
2021/10/14 08:45:40;;;;;;;6.32;4.88;;;;;;;9.72;100.00;97388.19;5023605;28;20054;-65
2021/10/14 08:48:08;;;;;;;9.05;5.60;;;;;;;9.72;100.00;97385.44;5023036;28;20052;-65
2021/10/14 08:50:37;;;;;;;6.88;4.72;;;;;;;9.45;100.00;97321.91;5023344;28;20061;-64
2021/10/14 08:53:05;;;;;;;15.00;8.07;;;;;;;9.73;100.00;97395.34;5022852;28;20053;-65
2021/10/14 08:55:35;;;;;;;16.55;10.13;;;;;;;9.48;100.00;97349.66;5023280;28;20053;-64
2021/10/14 08:58:06;;;;;;;6.13;4.10;;;;;;;9.58;100.00;97379.53;5022993;28;20056;-58
2021/10/14 09:00:38;;;;;;;14.40;6.25;;;;;;;9.65;100.00;97376.97;5021815;28;20053;-59
2021/10/14 09:03:26;;;;;;;10.00;5.32;;;;;;;9.48;100.00;97371.78;5021186;28;20136;-58
2021/10/14 09:05:53;;;;;;;23.30;9.10;;;;;;;9.37;100.00;97362.41;5022338;28;20057;-58
2021/10/14 09:08:47;;;;;;;11.98;4.28;;;;;;;9.42;100.00;97381.47;5022886;28;20057;-58
2021/10/14 09:11:15;;;;;;;13.68;5.50;;;;;;;9.55;100.00;97380.25;5021281;28;20063;-58
2021/10/14 09:13:50;;;;;;;21.08;9.10;;;;;;;9.32;100.00;97337.78;5021481;28;20065;-59
2021/10/14 09:16:37;;;;;;;17.23;7.22;;;;;;;9.86;100.00;97362.88;5022984;28;20056;-64
2021/10/14 09:19:16;;;;;;;15.02;8.63;;;;;;;9.85;100.00;97362.06;5022998;28;20103;-65
2021/10/14 09:21:50;;;;;;;13.10;6.40;;;;;;;9.91;100.00;97357.84;5021070;28;20111;-65
2021/10/14 09:24:38;;;;;;;10.32;5.80;;;;;;;10.18;100.00;97376.31;5021153;28;20140;-64
2021/10/14 09:27:11;;;;;;;13.95;7.80;;;;;;;10.20;100.00;97368.47;5021181;28;20049;-65
2021/10/14 09:29:38;;;;;;;19.97;10.60;;;;;;;9.94;100.00;97321.16;5022570;28;20060;-64
2021/10/14 09:32:08;;;;;;;23.92;12.15;;;;;;;10.21;100.00;97370.06;5022026;28;20288;-65
2021/10/14 09:34:39;;;;;;;13.38;7.43;;;;;;;10.33;100.00;97367.22;5022819;28;20060;-64
2021/10/14 09:37:18;;;;;;;11.32;5.18;;;;;;;10.25;100.00;97370.16;5022135;28;20064;-65
2021/10/14 09:39:58;;;;;;;9.45;4.97;;;;;;;9.31;100.00;97217.28;5022682;28;20056;-65
2021/10/14 09:43:02;;;;;;;4.15;2.70;;;;;;;10.21;100.00;97375.59;5022302;28;20045;-60
2021/10/14 09:45:35;;;;;;;3.00;2.22;;;;;;;10.20;100.00;97368.47;5031071;28;20054;-65
2021/10/14 09:48:04;;;;;;;3.50;3.20;;;;;;;10.12;100.00;97360.34;5025771;28;20140;-59
2021/10/14 09:50:31;;;;;;;6.22;3.75;;;;;;;10.29;100.00;97363.53;5026345;28;20049;-65
2021/10/14 09:53:00;;;;;;;8.13;4.68;;;;;;;10.39;100.00;97354.69;5026199;28;20041;-65
2021/10/14 09:55:27;;;;;;;16.13;8.73;;;;;;;9.63;100.00;97354.38;5026255;28;20049;-65
2021/10/14 09:57:55;;;;;;;10.48;6.63;;;;;;;9.12;100.00;97289.84;5025844;28;20053;-65
2021/10/14 10:00:23;;;;;;;11.45;6.63;;;;;;;9.92;100.00;97367.78;5026862;28;20068;-64
2021/10/14 10:02:52;;;;;;;7.22;4.20;;;;;;;9.84;100.00;97341.09;5026215;28;20054;-65
2021/10/14 10:05:19;;;;;;;4.60;2.13;;;;;;;9.36;100.00;97369.06;5024706;28;20049;-65
2021/10/14 10:07:49;;;;;;;9.60;6.30;;;;;;;9.40;100.00;97364.44;5025925;28;20050;-57
2021/10/14 10:10:19;;;;;;;7.85;4.78;;;;;;;9.33;100.00;97344.91;5026308;28;20523;-65
2021/10/14 10:12:48;;;;;;;8.27;5.00;;;;;;;9.27;100.00;97318.69;5025641;28;20053;-64
2021/10/14 10:15:15;;;;;;;11.00;5.82;;;;;;;9.47;100.00;97356.31;5026022;28;20057;-64
2021/10/14 10:17:42;;;;;;;11.43;6.22;;;;;;;9.20;100.00;97301.91;5025581;28;20053;-65
2021/10/14 10:20:30;;;;;;;3.88;2.80;;;;;;;8.86;100.00;97250.09;5026471;28;20049;-64
2021/10/14 10:22:57;;;;;;;5.25;3.35;;;;;;;9.55;100.00;97335.22;5024259;28;20050;-66
2021/10/14 10:25:24;;;;;;;7.43;5.07;;;;;;;9.55;100.00;97347.06;5025980;28;20051;-64
2021/10/14 10:27:54;;;;;;;7.50;5.28;;;;;;;9.62;100.00;97350.03;5023873;28;20061;-59
2021/10/14 10:30:33;;;;;;;5.32;3.55;;;;;;;8.88;100.00;97239.50;5025882;28;20140;-65
2021/10/14 10:33:05;;;;;;;6.10;3.88;;;;;;;9.63;100.00;97331.44;5025626;28;20063;-64
2021/10/14 10:35:48;;;;;;;10.18;5.72;;;;;;;9.51;100.00;97324.06;5025746;28;20114;-65
2021/10/14 10:38:24;;;;;;;6.33;3.57;;;;;;;9.60;100.00;97321.91;5025292;28;20054;-64
2021/10/14 10:40:55;;;;;;;6.28;4.28;;;;;;;9.26;100.00;97286.69;5025705;28;20571;-65
2021/10/14 10:43:29;;;;;;;13.32;7.55;;;;;;;9.57;100.00;97322.63;5025482;28;20061;-59
2021/10/14 10:46:03;;;;;;;7.65;4.95;;;;;;;9.57;100.00;97328.16;5025274;28;20050;-59
2021/10/14 10:48:34;;;;;;;6.40;3.63;;;;;;;9.54;100.00;97328.88;5023690;28;20459;-58
2021/10/14 10:51:02;;;;;;;8.10;4.10;;;;;;;7.64;100.00;97044.88;5021885;28;20899;-60
2021/10/14 10:53:45;;;;;;;5.70;3.45;;;;;;;9.23;100.00;97328.84;5023885;28;20562;-59
2021/10/14 10:56:27;;;;;;;4.60;2.13;;;;;;;9.12;100.00;97322.22;5024021;28;20052;-59
2021/10/14 10:58:55;;;;;;;2.22;1.60;;;;;;;9.21;100.00;97328.41;5024626;28;20810;-57
2021/10/14 11:01:22;;;;;;;2.67;2.10;;;;;;;8.64;100.00;97278.28;5036576;28;20055;-63
2021/10/14 11:04:03;;;;;;;2.05;1.60;;;;;;;8.28;100.00;97303.25;5025795;28;20084;-62
2021/10/14 11:06:32;;;;;;;1.98;1.45;;;;;;;8.39;100.00;97332.78;5030790;28;20065;-60
2021/10/14 11:09:05;;;;;;;4.15;2.50;;;;;;;8.28;100.00;97267.38;5029672;28;20052;-60
2021/10/14 11:11:33;;;;;;;10.67;4.97;;;;;;;7.86;100.00;97164.81;5025764;28;20045;-58
2021/10/14 11:14:00;;;;;;;7.25;4.35;;;;;;;9.12;100.00;97345.13;5024608;28;20140;-63
2021/10/14 11:16:29;;;;;;;6.70;4.45;;;;;;;8.61;100.00;97240.31;5025240;28;20064;-59
2021/10/14 11:18:56;;;;;;;7.25;4.35;;;;;;;9.17;100.00;97333.00;5024850;28;20088;-62
2021/10/14 11:21:41;;;;;;;4.75;3.25;;;;;;;9.30;100.00;97334.56;5023873;28;20057;-60
2021/10/14 11:24:08;;;;;;;2.35;1.77;;;;;;;8.72;100.00;97280.91;5024962;28;20151;-57
2021/10/14 11:26:42;;;;;;;4.22;2.55;;;;;;;7.07;100.00;96989.28;5024040;28;20515;-59